createdAt,value
2019-04-22T00:02:24.673Z,3.43
2019-04-22T00:05:04.746Z,3.40
2019-04-22T00:07:53.238Z,3.37
2019-04-22T00:10:30.543Z,2.90
2019-04-22T00:13:11.334Z,3.17
2019-04-22T00:15:19.991Z,2.70
2019-04-22T00:18:16.556Z,3.17
2019-04-22T00:20:30.797Z,3.00
2019-04-22T00:23:03.758Z,3.00
2019-04-22T00:25:34.721Z,3.13
2019-04-22T00:28:08.240Z,3.77
2019-04-22T00:30:36.054Z,3.53
2019-04-22T00:33:08.049Z,2.97
2019-04-22T00:35:41.343Z,3.05
2019-04-22T00:38:20.453Z,3.07
2019-04-22T00:40:46.088Z,3.10
2019-04-22T00:43:19.638Z,2.80
2019-04-22T00:48:20.634Z,2.67
2019-04-22T00:56:17.183Z,3.30
2019-04-22T01:03:55.501Z,3.47
2019-04-22T01:06:21.456Z,2.50
2019-04-22T01:11:29.935Z,2.80
2019-04-22T01:13:55.836Z,3.07
2019-04-22T01:18:54.864Z,2.97
2019-04-22T01:21:36.874Z,2.93
2019-04-22T01:23:57.577Z,3.17
2019-04-22T01:26:25.475Z,3.50
2019-04-22T01:28:55.522Z,3.37
2019-04-22T01:31:19.527Z,2.57
2019-04-22T01:33:58.598Z,3.23
2019-04-22T01:36:38.762Z,3.07
2019-04-22T01:39:09.353Z,2.40
2019-04-22T01:42:01.010Z,3.60
2019-04-22T01:44:27.929Z,3.87
2019-04-22T01:49:25.756Z,3.40
2019-04-22T01:54:29.692Z,3.30
2019-04-22T01:56:53.197Z,3.60
2019-04-22T01:59:18.233Z,3.60
2019-04-22T02:01:55.783Z,3.40
2019-04-22T02:04:33.560Z,3.33
2019-04-22T02:06:59.823Z,3.00
2019-04-22T02:09:38.392Z,3.50
2019-04-22T02:14:36.512Z,3.23
2019-04-22T02:19:35.699Z,3.30
2019-04-22T02:22:11.467Z,3.40
2019-04-22T02:24:46.730Z,3.40
2019-04-22T02:29:44.262Z,3.80
2019-04-22T02:32:28.041Z,3.97
2019-04-22T02:35:03.706Z,3.63
2019-04-22T02:37:29.621Z,3.27
2019-04-22T02:47:20.657Z,3.20
2019-04-22T02:49:53.622Z,3.30
2019-04-22T02:52:35.419Z,3.80
2019-04-22T03:00:05.664Z,3.57
2019-04-22T03:02:46.156Z,3.80
2019-04-22T03:07:32.273Z,3.27
2019-04-22T03:10:09.074Z,3.40
2019-04-22T03:12:33.245Z,3.30
2019-04-22T03:15:09.499Z,3.37
2019-04-22T03:20:08.495Z,2.93
2019-04-22T03:23:05.695Z,3.47
2019-04-22T03:27:40.158Z,3.40
2019-04-22T03:37:50.581Z,3.03
2019-04-22T03:45:32.184Z,3.17
2019-04-22T03:48:05.239Z,3.87
2019-04-22T03:53:21.002Z,3.63
2019-04-22T03:55:29.174Z,3.83
2019-04-22T04:03:09.763Z,3.23
2019-04-22T04:05:45.578Z,3.33
2019-04-22T04:08:14.776Z,3.80
2019-04-22T04:15:55.747Z,3.90
2019-04-22T04:18:18.800Z,3.40
2019-04-22T04:25:54.309Z,4.40
2019-04-22T04:28:39.744Z,3.87
2019-04-22T04:31:09.633Z,3.80
2019-04-22T04:33:36.212Z,4.15
2019-04-22T04:36:02.594Z,4.23
2019-04-22T04:38:41.205Z,3.70
2019-04-22T04:41:06.095Z,4.17
2019-04-22T04:43:48.144Z,4.03
2019-04-22T04:46:06.481Z,4.27
2019-04-22T04:51:15.990Z,4.40
2019-04-22T04:53:33.730Z,3.70
2019-04-22T04:56:29.824Z,3.30
2019-04-22T04:59:05.384Z,4.03
2019-04-22T05:01:24.698Z,3.57
2019-04-22T05:11:24.979Z,4.07
2019-04-22T05:18:50.960Z,4.13
2019-04-22T05:21:18.326Z,4.57
2019-04-22T05:23:55.097Z,4.10
2019-04-22T05:26:27.965Z,4.00
2019-04-22T05:28:49.908Z,4.33
2019-04-22T05:31:22.922Z,3.73
2019-04-22T05:33:57.838Z,3.70
2019-04-22T05:36:28.531Z,4.23
2019-04-22T05:39:04.550Z,4.30
2019-04-22T05:41:32.357Z,3.73
2019-04-22T05:44:02.842Z,3.80
2019-04-22T05:46:28.563Z,4.13
2019-04-22T05:49:09.868Z,4.50
2019-04-22T05:51:37.082Z,4.20
2019-04-22T05:54:13.295Z,4.37
2019-04-22T05:59:11.777Z,4.30
2019-04-22T06:02:01.239Z,4.20
2019-04-22T06:04:11.321Z,4.20
2019-04-22T06:06:37.060Z,4.27
2019-04-22T06:09:22.854Z,5.00
2019-04-22T06:11:42.748Z,4.97
2019-04-22T06:14:14.951Z,3.90
2019-04-22T06:19:18.525Z,4.00
2019-04-22T06:21:49.091Z,3.93
2019-04-22T06:24:23.291Z,3.53
2019-04-22T06:29:26.742Z,4.53
2019-04-22T06:32:17.872Z,4.00
2019-04-22T06:34:30.597Z,4.27
2019-04-22T06:39:44.838Z,3.93
2019-04-22T06:42:08.126Z,3.85
2019-04-22T06:44:36.853Z,4.10
2019-04-22T06:47:10.508Z,4.03
2019-04-22T06:52:13.937Z,3.80
2019-04-22T06:54:42.428Z,3.73
2019-04-22T06:57:15.020Z,3.43
2019-04-22T06:59:47.437Z,3.40
2019-04-22T07:02:16.566Z,3.73
2019-04-22T07:04:53.811Z,3.77
2019-04-22T07:07:22.059Z,3.97
2019-04-22T07:12:24.343Z,3.50
2019-04-22T07:14:53.496Z,3.40
2019-04-22T07:17:33.224Z,3.70
2019-04-22T07:19:58.494Z,4.20
2019-04-22T07:22:27.932Z,4.10
2019-04-22T07:24:58.813Z,3.87
2019-04-22T07:27:45.998Z,3.63
2019-04-22T07:30:09.172Z,3.63
2019-04-22T07:35:08.776Z,3.40
2019-04-22T07:37:51.516Z,3.60
2019-04-22T07:40:10.262Z,3.83
2019-04-22T07:45:10.302Z,2.93
2019-04-22T07:47:47.912Z,3.40
2019-04-22T07:50:30.766Z,3.70
2019-04-22T07:52:44.980Z,3.43
2019-04-22T07:55:11.687Z,3.20
2019-04-22T07:58:05.270Z,3.03
2019-04-22T08:00:22.675Z,3.37
2019-04-22T08:02:50.542Z,3.30
2019-04-22T08:05:26.575Z,2.97
2019-04-22T08:08:02.682Z,3.00
2019-04-22T08:10:30.299Z,3.07
2019-04-22T08:12:57.697Z,3.20
2019-04-22T08:15:31.230Z,3.53
2019-04-22T08:20:33.949Z,2.50
2019-04-22T08:23:09.606Z,2.87
2019-04-22T08:25:38.873Z,5.20
2019-04-22T08:28:11.809Z,3.00
2019-04-22T08:33:15.958Z,2.73
2019-04-22T08:36:00.769Z,2.50
2019-04-22T08:38:14.911Z,2.47
2019-04-22T08:41:23.564Z,2.47
2019-04-22T08:43:56.122Z,2.47
2019-04-22T08:46:25.264Z,2.57
2019-04-22T08:48:49.513Z,2.83
2019-04-22T08:51:23.519Z,2.90
2019-04-22T08:53:57.238Z,2.80
2019-04-22T08:56:30.953Z,2.13
2019-04-22T08:58:59.932Z,2.90
2019-04-22T09:03:58.546Z,2.87
2019-04-22T09:06:39.895Z,3.17
2019-04-22T09:09:01.429Z,2.50
2019-04-22T09:11:38.769Z,2.80
2019-04-22T09:14:07.907Z,2.73
2019-04-22T09:19:08.878Z,3.77
2019-04-22T09:21:38.878Z,3.20
2019-04-22T09:24:10.631Z,2.57
2019-04-22T09:26:45.332Z,2.47
2019-04-22T09:29:19.234Z,2.20
2019-04-22T09:31:44.671Z,2.30
2019-04-22T09:34:15.028Z,2.50
2019-04-22T09:37:08.183Z,2.40
2019-04-22T09:39:19.335Z,2.70
2019-04-22T09:41:55.411Z,2.70
2019-04-22T09:44:16.145Z,2.70
2019-04-22T09:51:52.533Z,2.67
2019-04-22T09:54:30.964Z,2.77
2019-04-22T09:56:59.658Z,2.43
2019-04-22T09:59:32.674Z,2.80
2019-04-22T10:02:13.313Z,3.73
2019-04-22T10:04:34.715Z,2.70
2019-04-22T10:07:05.668Z,2.63
2019-04-22T10:09:57.629Z,2.90
2019-04-22T10:12:10.388Z,2.40
2019-04-22T10:14:40.043Z,3.73
2019-04-22T10:17:06.611Z,2.50
2019-04-22T10:19:41.259Z,2.70
2019-04-22T10:22:19.934Z,2.37
2019-04-22T10:24:47.622Z,2.67
2019-04-22T10:27:16.216Z,2.83
2019-04-22T10:29:54.048Z,2.70
2019-04-22T10:32:14.824Z,2.87
2019-04-22T10:34:35.013Z,2.60
2019-04-22T10:37:02.638Z,2.60
2019-04-22T10:39:39.661Z,2.87
2019-04-22T10:42:01.197Z,2.80
2019-04-22T10:44:30.993Z,2.80
2019-04-22T10:47:02.258Z,2.70
2019-04-22T10:49:32.370Z,2.67
2019-04-22T10:52:02.684Z,2.90
2019-04-22T10:54:33.686Z,2.60
2019-04-22T10:57:03.793Z,2.23
2019-04-22T10:59:34.355Z,2.60
2019-04-22T11:02:05.406Z,2.67
2019-04-22T11:04:36.532Z,2.80
2019-04-22T11:07:09.054Z,2.50
2019-04-22T11:09:49.429Z,2.50
2019-04-22T11:12:13.641Z,2.50
2019-04-22T11:14:43.211Z,2.30
2019-04-22T11:17:11.746Z,2.23
2019-04-22T11:19:41.615Z,2.30
2019-04-22T11:22:18.571Z,2.40
2019-04-22T11:24:42.622Z,2.30
2019-04-22T11:27:12.645Z,2.43
2019-04-22T11:29:43.910Z,2.80
2019-04-22T11:32:14.746Z,2.50
2019-04-22T11:34:44.954Z,2.70
2019-04-22T11:37:16.478Z,3.00
2019-04-22T11:39:48.123Z,2.90
2019-04-22T11:42:18.270Z,2.87
2019-04-22T11:44:48.095Z,2.23
2019-04-22T11:47:19.178Z,2.30
2019-04-22T11:49:50.000Z,2.30
2019-04-22T11:52:20.487Z,2.50
2019-04-22T11:54:50.657Z,2.53
2019-04-22T11:57:21.174Z,2.30
2019-04-22T11:59:51.156Z,2.23
2019-04-22T12:02:23.375Z,2.27
2019-04-22T12:04:54.025Z,2.20
2019-04-22T12:07:24.753Z,2.50
2019-04-22T12:09:55.584Z,3.07
2019-04-22T12:12:27.829Z,2.87
2019-04-22T12:14:58.673Z,3.07
2019-04-22T12:17:29.851Z,2.90
2019-04-22T12:20:00.223Z,2.50
2019-04-22T12:22:33.823Z,2.70
2019-04-22T12:25:08.081Z,2.80
2019-04-22T12:30:16.851Z,3.10
2019-04-22T12:32:46.439Z,2.80
2019-04-22T12:35:17.757Z,2.70
2019-04-22T12:37:53.294Z,2.53
2019-04-22T12:40:31.452Z,2.67
2019-04-22T12:42:51.364Z,2.60
2019-04-22T12:45:22.437Z,2.27
2019-04-22T12:47:53.817Z,2.50
2019-04-22T12:50:28.321Z,2.40
2019-04-22T12:52:59.593Z,2.47
2019-04-22T12:55:27.947Z,3.10
2019-04-22T12:58:00.805Z,2.70
2019-04-22T13:00:30.197Z,2.23
2019-04-22T13:03:01.114Z,3.20
2019-04-22T13:05:31.353Z,2.60
2019-04-22T13:08:01.998Z,2.50
2019-04-22T13:10:41.527Z,2.50
2019-04-22T13:13:04.897Z,2.40
2019-04-22T13:15:35.162Z,2.40
2019-04-22T13:18:14.923Z,2.60
2019-04-22T13:20:36.545Z,2.37
2019-04-22T13:23:07.772Z,3.17
2019-04-22T13:25:38.887Z,2.53
2019-04-22T13:28:09.344Z,2.40
2019-04-22T13:30:40.913Z,2.53
2019-04-22T13:33:10.902Z,2.20
2019-04-22T13:35:41.635Z,2.47
2019-04-22T13:38:12.959Z,2.20
2019-04-22T13:40:59.528Z,2.40
2019-04-22T13:43:14.982Z,2.40
2019-04-22T13:45:45.684Z,2.40
2019-04-22T13:48:35.901Z,2.43
2019-04-22T13:51:18.592Z,2.20
2019-04-22T13:56:23.801Z,2.20
2019-04-22T13:58:35.454Z,2.50
2019-04-22T14:00:54.603Z,2.70
2019-04-22T14:03:36.077Z,2.50
2019-04-22T14:06:09.084Z,2.13
2019-04-22T14:08:39.145Z,1.90
2019-04-22T14:11:17.619Z,2.53
2019-04-22T14:13:40.127Z,2.47
2019-04-22T14:16:10.959Z,2.50
2019-04-22T14:18:41.535Z,2.57
2019-04-22T14:21:12.493Z,2.53
2019-04-22T14:23:42.560Z,2.87
2019-04-22T14:26:13.367Z,3.47
2019-04-22T14:28:43.762Z,2.90
2019-04-22T14:31:14.768Z,2.27
2019-04-22T14:33:50.015Z,2.80
2019-04-22T14:36:17.150Z,2.53
2019-04-22T14:38:48.027Z,2.23
2019-04-22T14:41:35.821Z,2.83
2019-04-22T14:44:49.604Z,2.83
2019-04-22T14:46:53.625Z,2.60
2019-04-22T14:49:21.537Z,2.30
2019-04-22T14:51:47.026Z,2.63
2019-04-22T14:54:10.083Z,3.10
2019-04-22T14:56:26.569Z,3.00
2019-04-22T14:58:56.667Z,3.00
2019-04-22T15:01:26.701Z,2.67
2019-04-22T15:03:56.650Z,2.77
2019-04-22T15:06:26.402Z,2.50
2019-04-22T15:08:59.252Z,3.77
2019-04-22T15:11:28.878Z,2.93
2019-04-22T15:13:59.220Z,2.87
2019-04-22T15:16:32.029Z,2.53
2019-04-22T15:19:04.096Z,3.20
2019-04-22T15:21:34.552Z,2.80
2019-04-22T15:24:22.988Z,3.03
2019-04-22T15:26:56.369Z,2.63
2019-04-22T15:29:27.312Z,2.63
2019-04-22T15:31:57.649Z,2.50
2019-04-22T15:34:28.284Z,2.73
2019-04-22T15:36:58.195Z,2.30
2019-04-22T15:39:29.268Z,2.63
2019-04-22T15:42:09.769Z,2.67
2019-04-22T15:44:31.916Z,2.90
2019-04-22T15:47:02.815Z,2.90
2019-04-22T15:49:34.053Z,2.23
2019-04-22T15:52:06.091Z,2.90
2019-04-22T15:54:35.399Z,2.57
2019-04-22T15:57:06.570Z,2.73
2019-04-22T15:59:54.021Z,2.50
2019-04-22T16:02:08.640Z,2.53
2019-04-22T16:04:41.010Z,2.57
2019-04-22T16:07:11.080Z,2.53
2019-04-22T16:09:41.623Z,2.63
2019-04-22T16:12:19.379Z,2.50
2019-04-22T16:14:47.759Z,2.73
2019-04-22T16:17:14.709Z,2.90
2019-04-22T16:19:45.156Z,2.80
2019-04-22T16:22:19.138Z,2.37
2019-04-22T16:24:58.259Z,2.80
2019-04-22T16:27:30.254Z,3.13
2019-04-22T16:30:01.301Z,2.50
2019-04-22T16:32:31.957Z,2.93
2019-04-22T16:35:01.947Z,2.70
2019-04-22T16:37:32.753Z,2.70
2019-04-22T16:40:03.143Z,2.57
2019-04-22T16:42:42.643Z,2.30
2019-04-22T16:45:07.530Z,2.60
2019-04-22T16:47:37.487Z,2.47
2019-04-22T16:50:08.151Z,2.50
2019-04-22T16:52:38.004Z,2.83
2019-04-22T16:55:08.749Z,2.50
2019-04-22T16:57:39.807Z,2.67
2019-04-22T17:00:11.178Z,2.60
2019-04-22T17:02:59.255Z,2.67
2019-04-22T17:05:35.717Z,2.10
2019-04-22T17:08:06.026Z,2.30
2019-04-22T17:10:37.714Z,2.63
2019-04-22T17:13:11.957Z,2.50
2019-04-22T17:15:39.662Z,2.27
2019-04-22T17:18:09.737Z,2.47
2019-04-22T17:20:40.438Z,2.20
2019-04-22T17:23:11.593Z,2.60
2019-04-22T17:25:42.607Z,2.90
2019-04-22T17:28:13.253Z,2.23
2019-04-22T17:30:43.780Z,2.37
2019-04-22T17:33:14.617Z,2.90
2019-04-22T17:35:46.419Z,2.63
2019-04-22T17:38:24.791Z,2.20
2019-04-22T17:41:02.588Z,2.67
2019-04-22T17:43:47.994Z,2.53
2019-04-22T17:46:25.184Z,2.30
2019-04-22T17:49:10.492Z,2.53
2019-04-22T17:51:59.535Z,2.43
2019-04-22T17:54:28.254Z,2.50
2019-04-22T17:56:43.691Z,2.50
2019-04-22T17:59:16.923Z,2.20
2019-04-22T18:01:43.875Z,2.17
2019-04-22T18:03:59.506Z,2.40
2019-04-22T18:06:55.204Z,2.53
2019-04-22T18:09:21.098Z,2.83
2019-04-22T18:11:51.199Z,2.43
2019-04-22T18:14:39.951Z,2.43
2019-04-22T18:16:51.982Z,2.17
2019-04-22T18:19:19.349Z,2.40
2019-04-22T18:21:51.732Z,2.60
2019-04-22T18:24:15.682Z,2.47
2019-04-22T18:26:57.721Z,2.20
2019-04-22T18:29:31.577Z,2.17
2019-04-22T18:31:52.487Z,2.40
2019-04-22T18:34:25.544Z,2.33
2019-04-22T18:36:58.964Z,2.63
2019-04-22T18:39:42.331Z,2.00
2019-04-22T18:42:03.111Z,2.63
2019-04-22T18:44:41.430Z,1.97
2019-04-22T18:47:10.723Z,2.30
2019-04-22T18:49:37.553Z,2.43
2019-04-22T18:52:32.954Z,2.50
2019-04-22T18:55:14.728Z,2.13
2019-04-22T18:58:01.127Z,2.33
2019-04-22T19:00:29.209Z,2.30
2019-04-22T19:03:07.219Z,2.40
2019-04-22T19:05:49.417Z,2.57
2019-04-22T19:11:07.341Z,2.70
2019-04-22T19:16:13.016Z,2.90
2019-04-22T19:18:34.633Z,2.50
2019-04-22T19:21:01.220Z,2.47
2019-04-22T19:23:32.205Z,2.50
2019-04-22T19:26:06.083Z,3.00
2019-04-22T19:31:09.402Z,2.43
2019-04-22T19:33:39.928Z,2.30
2019-04-22T19:36:10.771Z,2.97
2019-04-22T19:38:28.579Z,2.47
2019-04-22T19:43:46.197Z,2.80
2019-04-22T19:46:15.248Z,2.40
2019-04-22T19:48:50.106Z,2.33
2019-04-22T19:51:23.576Z,2.63
2019-04-22T19:53:54.359Z,2.47
2019-04-22T19:56:11.774Z,2.50
2019-04-22T19:58:45.531Z,2.70
2019-04-22T20:01:26.926Z,2.80
2019-04-22T20:04:22.988Z,2.50
2019-04-22T20:06:53.326Z,3.03
2019-04-22T20:09:29.943Z,2.67
2019-04-22T20:11:57.603Z,2.83
2019-04-22T20:14:33.375Z,2.60
2019-04-22T20:16:54.743Z,3.07
2019-04-22T20:19:41.577Z,3.17
2019-04-22T20:22:03.351Z,2.70
2019-04-22T20:24:22.661Z,3.17
2019-04-22T20:27:09.116Z,3.27
2019-04-22T20:29:54.232Z,3.10
2019-04-22T20:32:12.014Z,2.90
2019-04-22T20:34:44.631Z,3.23
2019-04-22T20:37:16.570Z,3.37
2019-04-22T20:39:49.118Z,3.03
2019-04-22T20:45:07.097Z,3.50
2019-04-22T20:47:16.586Z,3.00
2019-04-22T20:49:48.752Z,3.60
2019-04-22T20:52:26.445Z,3.00
2019-04-22T20:54:52.955Z,3.10
2019-04-22T20:57:24.066Z,3.17
2019-04-22T20:59:51.180Z,3.23
2019-04-22T21:02:18.199Z,2.77
2019-04-22T21:04:47.725Z,3.47
2019-04-22T21:07:23.724Z,2.97
2019-04-22T21:09:59.485Z,3.20
2019-04-22T21:12:26.600Z,3.70
2019-04-22T21:15:06.831Z,3.27
2019-04-22T21:17:34.746Z,3.67
2019-04-22T21:20:15.570Z,3.50
2019-04-22T21:22:38.993Z,3.23
2019-04-22T21:25:01.961Z,3.50
2019-04-22T21:27:45.082Z,3.00
2019-04-22T21:30:03.312Z,3.57
2019-04-22T21:32:38.881Z,3.43
2019-04-22T21:35:19.830Z,3.60
2019-04-22T21:37:55.829Z,3.50
2019-04-22T21:40:19.884Z,3.00
2019-04-22T21:42:57.324Z,3.67
2019-04-22T21:45:15.171Z,3.03
2019-04-22T21:47:58.840Z,3.07
2019-04-22T21:53:03.552Z,3.40
2019-04-22T21:55:31.807Z,3.30
2019-04-22T21:58:14.846Z,3.40
2019-04-22T22:00:53.990Z,3.33
2019-04-22T22:03:19.176Z,3.20
2019-04-22T22:05:40.119Z,3.00
2019-04-22T22:08:22.919Z,3.40
2019-04-22T22:10:52.258Z,4.00
2019-04-22T22:13:16.974Z,3.27
2019-04-22T22:15:52.083Z,3.30
2019-04-22T22:18:20.034Z,3.20
2019-04-22T22:21:12.856Z,3.63
2019-04-22T22:23:34.439Z,3.90
2019-04-22T22:25:55.611Z,3.30
2019-04-22T22:28:45.443Z,3.63
2019-04-22T22:31:08.845Z,3.53
2019-04-22T22:33:39.737Z,3.90
2019-04-22T22:36:05.026Z,4.17
2019-04-22T22:38:29.722Z,3.70
2019-04-22T22:40:49.928Z,3.20
2019-04-22T22:43:27.880Z,3.50
2019-04-22T22:46:05.938Z,4.17
2019-04-22T22:48:43.394Z,3.53
2019-04-22T22:51:15.593Z,3.60
2019-04-22T22:54:04.830Z,3.43
2019-04-22T22:56:18.986Z,3.63
2019-04-22T22:58:52.693Z,3.27
2019-04-22T23:01:28.697Z,3.30
2019-04-22T23:03:55.958Z,2.90
2019-04-22T23:06:27.601Z,3.37
2019-04-22T23:08:56.151Z,3.90
2019-04-22T23:11:50.800Z,3.50
2019-04-22T23:13:57.784Z,4.03
2019-04-22T23:16:18.229Z,3.67
2019-04-22T23:18:57.613Z,3.37
2019-04-22T23:21:35.145Z,3.67
2019-04-22T23:24:16.055Z,3.90
2019-04-22T23:26:54.016Z,3.83
2019-04-22T23:29:26.315Z,3.97
2019-04-22T23:32:01.709Z,3.50
2019-04-22T23:34:32.916Z,3.60
2019-04-22T23:37:24.508Z,3.87
2019-04-22T23:40:01.673Z,3.77
2019-04-22T23:42:27.304Z,3.47
2019-04-22T23:45:04.370Z,3.67
2019-04-22T23:47:29.280Z,3.87
2019-04-22T23:50:09.614Z,4.03
2019-04-22T23:52:43.565Z,3.57
2019-04-22T23:55:14.387Z,4.20
2019-04-22T23:57:46.239Z,3.67
